sensor_id;sensor_type;location;lat;lon;timestamp;P1;durP1;ratioP1;P2;durP2;ratioP2
37593;SDS011;23441;50.856;6.076;2023-03-29T00:02:21;3.83;;;2.33;;
37593;SDS011;23441;50.856;6.076;2023-03-29T00:04:54;2.63;;;2.05;;
37593;SDS011;23441;50.856;6.076;2023-03-29T00:07:26;3.92;;;2.13;;
37593;SDS011;23441;50.856;6.076;2023-03-29T00:09:57;3.38;;;2.30;;
37593;SDS011;23441;50.856;6.076;2023-03-29T00:12:23;6.85;;;2.72;;
37593;SDS011;23441;50.856;6.076;2023-03-29T00:14:49;3.63;;;2.30;;
37593;SDS011;23441;50.856;6.076;2023-03-29T00:17:15;5.25;;;2.25;;
37593;SDS011;23441;50.856;6.076;2023-03-29T00:19:43;4.38;;;2.53;;
37593;SDS011;23441;50.856;6.076;2023-03-29T00:22:09;3.10;;;2.42;;
37593;SDS011;23441;50.856;6.076;2023-03-29T00:24:35;2.92;;;2.13;;
37593;SDS011;23441;50.856;6.076;2023-03-29T00:27:00;5.65;;;2.65;;
37593;SDS011;23441;50.856;6.076;2023-03-29T00:29:26;4.07;;;2.00;;
37593;SDS011;23441;50.856;6.076;2023-03-29T00:31:52;2.90;;;2.15;;
37593;SDS011;23441;50.856;6.076;2023-03-29T00:34:20;4.70;;;2.53;;
37593;SDS011;23441;50.856;6.076;2023-03-29T00:36:46;5.13;;;2.70;;
37593;SDS011;23441;50.856;6.076;2023-03-29T00:39:16;3.17;;;2.10;;
37593;SDS011;23441;50.856;6.076;2023-03-29T00:41:46;4.03;;;2.35;;
37593;SDS011;23441;50.856;6.076;2023-03-29T00:47:15;3.88;;;2.10;;
37593;SDS011;23441;50.856;6.076;2023-03-29T00:49:45;4.28;;;2.20;;
37593;SDS011;23441;50.856;6.076;2023-03-29T00:52:11;6.40;;;2.40;;
37593;SDS011;23441;50.856;6.076;2023-03-29T00:54:39;4.30;;;2.10;;
37593;SDS011;23441;50.856;6.076;2023-03-29T00:57:08;2.65;;;2.13;;
37593;SDS011;23441;50.856;6.076;2023-03-29T00:59:35;6.57;;;2.00;;
37593;SDS011;23441;50.856;6.076;2023-03-29T01:02:02;3.17;;;1.90;;
37593;SDS011;23441;50.856;6.076;2023-03-29T01:04:39;4.40;;;2.40;;
37593;SDS011;23441;50.856;6.076;2023-03-29T01:09:59;5.57;;;2.40;;
37593;SDS011;23441;50.856;6.076;2023-03-29T01:12:34;3.40;;;2.17;;
37593;SDS011;23441;50.856;6.076;2023-03-29T01:15:07;5.00;;;2.47;;
37593;SDS011;23441;50.856;6.076;2023-03-29T01:17:36;6.28;;;2.33;;
37593;SDS011;23441;50.856;6.076;2023-03-29T01:20:08;3.80;;;2.15;;
37593;SDS011;23441;50.856;6.076;2023-03-29T01:28:22;4.40;;;2.40;;
37593;SDS011;23441;50.856;6.076;2023-03-29T01:31:04;4.57;;;2.40;;
37593;SDS011;23441;50.856;6.076;2023-03-29T01:33:41;3.05;;;2.25;;
37593;SDS011;23441;50.856;6.076;2023-03-29T01:36:11;4.85;;;2.28;;
37593;SDS011;23441;50.856;6.076;2023-03-29T01:38:47;5.95;;;2.75;;
37593;SDS011;23441;50.856;6.076;2023-03-29T01:41:18;4.03;;;2.40;;
37593;SDS011;23441;50.856;6.076;2023-03-29T01:43:49;3.72;;;2.30;;
37593;SDS011;23441;50.856;6.076;2023-03-29T01:49:01;3.58;;;2.40;;
37593;SDS011;23441;50.856;6.076;2023-03-29T01:51:34;3.25;;;2.45;;
37593;SDS011;23441;50.856;6.076;2023-03-29T01:54:09;6.13;;;2.50;;
37593;SDS011;23441;50.856;6.076;2023-03-29T01:56:41;6.20;;;2.33;;
37593;SDS011;23441;50.856;6.076;2023-03-29T01:59:10;6.15;;;2.30;;
37593;SDS011;23441;50.856;6.076;2023-03-29T02:01:42;7.28;;;2.55;;
37593;SDS011;23441;50.856;6.076;2023-03-29T02:04:13;3.33;;;2.22;;
37593;SDS011;23441;50.856;6.076;2023-03-29T02:06:42;5.32;;;2.63;;
37593;SDS011;23441;50.856;6.076;2023-03-29T02:09:09;3.05;;;2.45;;
37593;SDS011;23441;50.856;6.076;2023-03-29T02:11:36;4.22;;;2.20;;
37593;SDS011;23441;50.856;6.076;2023-03-29T02:14:02;3.67;;;2.17;;
37593;SDS011;23441;50.856;6.076;2023-03-29T02:16:33;6.00;;;2.38;;
37593;SDS011;23441;50.856;6.076;2023-03-29T02:19:00;3.00;;;2.08;;
37593;SDS011;23441;50.856;6.076;2023-03-29T02:21:30;2.38;;;1.88;;
37593;SDS011;23441;50.856;6.076;2023-03-29T02:24:08;6.10;;;1.95;;
37593;SDS011;23441;50.856;6.076;2023-03-29T02:26:37;3.53;;;2.20;;
37593;SDS011;23441;50.856;6.076;2023-03-29T02:29:03;3.47;;;2.10;;
37593;SDS011;23441;50.856;6.076;2023-03-29T02:31:39;5.47;;;1.80;;
37593;SDS011;23441;50.856;6.076;2023-03-29T02:36:46;6.03;;;2.10;;
37593;SDS011;23441;50.856;6.076;2023-03-29T02:39:22;7.75;;;2.58;;
37593;SDS011;23441;50.856;6.076;2023-03-29T02:41:50;3.78;;;2.30;;
37593;SDS011;23441;50.856;6.076;2023-03-29T02:44:18;5.88;;;2.03;;
37593;SDS011;23441;50.856;6.076;2023-03-29T02:46:46;4.93;;;1.95;;
37593;SDS011;23441;50.856;6.076;2023-03-29T02:49:25;3.13;;;2.42;;
37593;SDS011;23441;50.856;6.076;2023-03-29T02:51:51;3.72;;;2.30;;
37593;SDS011;23441;50.856;6.076;2023-03-29T02:54:21;2.83;;;2.00;;
37593;SDS011;23441;50.856;6.076;2023-03-29T02:56:55;6.40;;;2.60;;
37593;SDS011;23441;50.856;6.076;2023-03-29T02:59:22;4.85;;;2.10;;
37593;SDS011;23441;50.856;6.076;2023-03-29T03:01:48;6.53;;;2.20;;
37593;SDS011;23441;50.856;6.076;2023-03-29T03:04:15;3.33;;;2.05;;
37593;SDS011;23441;50.856;6.076;2023-03-29T03:06:42;3.97;;;2.33;;
37593;SDS011;23441;50.856;6.076;2023-03-29T03:09:08;2.83;;;2.17;;
37593;SDS011;23441;50.856;6.076;2023-03-29T03:11:34;4.82;;;2.35;;
37593;SDS011;23441;50.856;6.076;2023-03-29T03:14:00;3.35;;;2.17;;
37593;SDS011;23441;50.856;6.076;2023-03-29T03:16:25;3.22;;;2.50;;
37593;SDS011;23441;50.856;6.076;2023-03-29T03:18:52;5.95;;;2.53;;
37593;SDS011;23441;50.856;6.076;2023-03-29T03:21:19;4.25;;;2.45;;
37593;SDS011;23441;50.856;6.076;2023-03-29T03:23:45;3.42;;;2.22;;
37593;SDS011;23441;50.856;6.076;2023-03-29T03:26:12;5.85;;;2.13;;
37593;SDS011;23441;50.856;6.076;2023-03-29T03:28:39;3.22;;;2.22;;
37593;SDS011;23441;50.856;6.076;2023-03-29T03:31:05;3.90;;;2.20;;
37593;SDS011;23441;50.856;6.076;2023-03-29T03:33:31;8.25;;;2.55;;
37593;SDS011;23441;50.856;6.076;2023-03-29T03:35:58;4.55;;;2.13;;
37593;SDS011;23441;50.856;6.076;2023-03-29T03:38:30;6.05;;;2.42;;
37593;SDS011;23441;50.856;6.076;2023-03-29T03:40:57;5.68;;;2.30;;
37593;SDS011;23441;50.856;6.076;2023-03-29T03:43:23;3.47;;;2.50;;
37593;SDS011;23441;50.856;6.076;2023-03-29T03:45:50;6.25;;;2.30;;
37593;SDS011;23441;50.856;6.076;2023-03-29T03:48:15;6.82;;;2.00;;
37593;SDS011;23441;50.856;6.076;2023-03-29T03:50:52;4.45;;;2.30;;
37593;SDS011;23441;50.856;6.076;2023-03-29T03:53:22;4.88;;;2.80;;
37593;SDS011;23441;50.856;6.076;2023-03-29T03:55:50;4.95;;;2.58;;
37593;SDS011;23441;50.856;6.076;2023-03-29T03:58:16;4.07;;;2.40;;
37593;SDS011;23441;50.856;6.076;2023-03-29T04:00:43;8.20;;;3.85;;
37593;SDS011;23441;50.856;6.076;2023-03-29T04:03:11;5.15;;;2.10;;
37593;SDS011;23441;50.856;6.076;2023-03-29T04:05:41;4.00;;;2.72;;
37593;SDS011;23441;50.856;6.076;2023-03-29T04:08:08;4.40;;;2.05;;
37593;SDS011;23441;50.856;6.076;2023-03-29T04:10:36;3.90;;;2.33;;
37593;SDS011;23441;50.856;6.076;2023-03-29T04:13:03;6.05;;;2.58;;
37593;SDS011;23441;50.856;6.076;2023-03-29T04:15:30;5.82;;;2.70;;
37593;SDS011;23441;50.856;6.076;2023-03-29T04:17:57;5.40;;;2.22;;
37593;SDS011;23441;50.856;6.076;2023-03-29T04:20:24;7.78;;;2.63;;
37593;SDS011;23441;50.856;6.076;2023-03-29T04:22:50;7.10;;;2.60;;
37593;SDS011;23441;50.856;6.076;2023-03-29T04:25:16;3.65;;;2.35;;
37593;SDS011;23441;50.856;6.076;2023-03-29T04:27:42;5.30;;;2.60;;
37593;SDS011;23441;50.856;6.076;2023-03-29T04:30:08;4.97;;;2.38;;
37593;SDS011;23441;50.856;6.076;2023-03-29T04:32:35;6.90;;;2.53;;
37593;SDS011;23441;50.856;6.076;2023-03-29T04:35:01;4.13;;;2.45;;
37593;SDS011;23441;50.856;6.076;2023-03-29T04:37:28;7.65;;;2.63;;
37593;SDS011;23441;50.856;6.076;2023-03-29T04:39:55;5.00;;;2.72;;
37593;SDS011;23441;50.856;6.076;2023-03-29T04:42:21;4.88;;;2.70;;
37593;SDS011;23441;50.856;6.076;2023-03-29T04:44:47;6.07;;;2.50;;
37593;SDS011;23441;50.856;6.076;2023-03-29T04:47:13;5.78;;;2.20;;
37593;SDS011;23441;50.856;6.076;2023-03-29T04:49:39;4.63;;;2.45;;
37593;SDS011;23441;50.856;6.076;2023-03-29T04:52:05;6.78;;;2.95;;
37593;SDS011;23441;50.856;6.076;2023-03-29T04:54:32;9.48;;;2.90;;
37593;SDS011;23441;50.856;6.076;2023-03-29T04:56:57;3.20;;;2.13;;
37593;SDS011;23441;50.856;6.076;2023-03-29T04:59:23;5.50;;;2.65;;
37593;SDS011;23441;50.856;6.076;2023-03-29T05:01:49;5.15;;;2.97;;
37593;SDS011;23441;50.856;6.076;2023-03-29T05:04:15;6.57;;;2.92;;
37593;SDS011;23441;50.856;6.076;2023-03-29T05:06:42;6.28;;;2.60;;
37593;SDS011;23441;50.856;6.076;2023-03-29T05:09:07;5.68;;;2.20;;
37593;SDS011;23441;50.856;6.076;2023-03-29T05:11:34;5.55;;;2.38;;
37593;SDS011;23441;50.856;6.076;2023-03-29T05:14:00;3.78;;;2.40;;
37593;SDS011;23441;50.856;6.076;2023-03-29T05:16:30;6.60;;;2.30;;
37593;SDS011;23441;50.856;6.076;2023-03-29T05:18:56;5.97;;;2.67;;
37593;SDS011;23441;50.856;6.076;2023-03-29T05:21:22;4.40;;;2.85;;
37593;SDS011;23441;50.856;6.076;2023-03-29T05:23:50;5.50;;;2.53;;
37593;SDS011;23441;50.856;6.076;2023-03-29T05:26:16;5.72;;;3.30;;
37593;SDS011;23441;50.856;6.076;2023-03-29T05:28:41;8.35;;;3.00;;
37593;SDS011;23441;50.856;6.076;2023-03-29T05:31:07;6.70;;;3.03;;
37593;SDS011;23441;50.856;6.076;2023-03-29T05:33:34;5.65;;;2.80;;
37593;SDS011;23441;50.856;6.076;2023-03-29T05:36:00;4.72;;;2.75;;
37593;SDS011;23441;50.856;6.076;2023-03-29T05:38:28;4.45;;;2.60;;
37593;SDS011;23441;50.856;6.076;2023-03-29T05:40:54;5.55;;;2.88;;
37593;SDS011;23441;50.856;6.076;2023-03-29T05:43:20;5.93;;;2.80;;
37593;SDS011;23441;50.856;6.076;2023-03-29T05:45:46;4.93;;;2.80;;
37593;SDS011;23441;50.856;6.076;2023-03-29T05:48:12;6.38;;;2.70;;
37593;SDS011;23441;50.856;6.076;2023-03-29T05:50:38;10.63;;;3.40;;
37593;SDS011;23441;50.856;6.076;2023-03-29T05:53:03;7.10;;;2.60;;
37593;SDS011;23441;50.856;6.076;2023-03-29T05:55:29;7.05;;;3.15;;
37593;SDS011;23441;50.856;6.076;2023-03-29T05:57:55;7.70;;;2.90;;
37593;SDS011;23441;50.856;6.076;2023-03-29T06:00:21;6.07;;;3.10;;
37593;SDS011;23441;50.856;6.076;2023-03-29T06:02:50;7.60;;;3.28;;
37593;SDS011;23441;50.856;6.076;2023-03-29T06:05:19;8.82;;;3.28;;
37593;SDS011;23441;50.856;6.076;2023-03-29T06:07:45;7.22;;;2.88;;
37593;SDS011;23441;50.856;6.076;2023-03-29T06:10:12;5.63;;;3.15;;
37593;SDS011;23441;50.856;6.076;2023-03-29T06:12:39;8.30;;;2.95;;
37593;SDS011;23441;50.856;6.076;2023-03-29T06:15:06;11.43;;;3.90;;
37593;SDS011;23441;50.856;6.076;2023-03-29T06:17:32;4.78;;;3.00;;
37593;SDS011;23441;50.856;6.076;2023-03-29T06:19:58;5.18;;;2.80;;
37593;SDS011;23441;50.856;6.076;2023-03-29T06:22:24;6.35;;;3.28;;
37593;SDS011;23441;50.856;6.076;2023-03-29T06:24:51;4.50;;;2.70;;
37593;SDS011;23441;50.856;6.076;2023-03-29T06:27:18;4.90;;;2.80;;
37593;SDS011;23441;50.856;6.076;2023-03-29T06:29:43;7.70;;;2.97;;
37593;SDS011;23441;50.856;6.076;2023-03-29T06:32:09;8.23;;;3.03;;
37593;SDS011;23441;50.856;6.076;2023-03-29T06:34:35;5.85;;;3.20;;
37593;SDS011;23441;50.856;6.076;2023-03-29T06:37:01;5.10;;;2.63;;
37593;SDS011;23441;50.856;6.076;2023-03-29T06:39:27;6.13;;;2.97;;
37593;SDS011;23441;50.856;6.076;2023-03-29T06:41:54;6.15;;;2.88;;
37593;SDS011;23441;50.856;6.076;2023-03-29T06:44:20;9.95;;;4.65;;
37593;SDS011;23441;50.856;6.076;2023-03-29T06:46:45;4.15;;;2.90;;
37593;SDS011;23441;50.856;6.076;2023-03-29T06:49:11;5.85;;;2.42;;
37593;SDS011;23441;50.856;6.076;2023-03-29T06:51:36;8.23;;;2.95;;
37593;SDS011;23441;50.856;6.076;2023-03-29T06:54:04;10.10;;;3.08;;
37593;SDS011;23441;50.856;6.076;2023-03-29T06:56:29;6.30;;;2.42;;
37593;SDS011;23441;50.856;6.076;2023-03-29T06:58:56;6.80;;;2.92;;
37593;SDS011;23441;50.856;6.076;2023-03-29T07:01:21;6.70;;;2.70;;
37593;SDS011;23441;50.856;6.076;2023-03-29T07:03:48;4.50;;;2.80;;
37593;SDS011;23441;50.856;6.076;2023-03-29T07:06:13;5.20;;;2.65;;
37593;SDS011;23441;50.856;6.076;2023-03-29T07:08:41;4.00;;;2.63;;
37593;SDS011;23441;50.856;6.076;2023-03-29T07:11:10;5.57;;;2.50;;
37593;SDS011;23441;50.856;6.076;2023-03-29T07:13:38;7.13;;;3.17;;
37593;SDS011;23441;50.856;6.076;2023-03-29T07:16:06;6.82;;;2.88;;
37593;SDS011;23441;50.856;6.076;2023-03-29T07:18:39;7.78;;;3.20;;
37593;SDS011;23441;50.856;6.076;2023-03-29T07:21:05;7.63;;;2.95;;
37593;SDS011;23441;50.856;6.076;2023-03-29T07:23:32;10.10;;;2.78;;
37593;SDS011;23441;50.856;6.076;2023-03-29T07:25:58;6.10;;;2.78;;
37593;SDS011;23441;50.856;6.076;2023-03-29T07:28:24;4.80;;;2.80;;
37593;SDS011;23441;50.856;6.076;2023-03-29T07:30:50;5.45;;;2.50;;
37593;SDS011;23441;50.856;6.076;2023-03-29T07:33:15;5.55;;;2.85;;
37593;SDS011;23441;50.856;6.076;2023-03-29T07:35:42;5.72;;;2.63;;
37593;SDS011;23441;50.856;6.076;2023-03-29T07:38:11;4.50;;;2.45;;
37593;SDS011;23441;50.856;6.076;2023-03-29T07:40:39;5.18;;;2.70;;
37593;SDS011;23441;50.856;6.076;2023-03-29T07:43:05;4.15;;;2.85;;
37593;SDS011;23441;50.856;6.076;2023-03-29T07:45:32;4.65;;;2.53;;
37593;SDS011;23441;50.856;6.076;2023-03-29T07:47:59;4.93;;;2.53;;
37593;SDS011;23441;50.856;6.076;2023-03-29T07:50:25;4.70;;;2.40;;
37593;SDS011;23441;50.856;6.076;2023-03-29T07:52:51;5.28;;;2.70;;
37593;SDS011;23441;50.856;6.076;2023-03-29T07:55:17;7.03;;;2.75;;
37593;SDS011;23441;50.856;6.076;2023-03-29T07:57:43;5.82;;;2.75;;
37593;SDS011;23441;50.856;6.076;2023-03-29T08:00:09;4.65;;;2.72;;
37593;SDS011;23441;50.856;6.076;2023-03-29T08:02:43;5.32;;;3.15;;
37593;SDS011;23441;50.856;6.076;2023-03-29T08:05:11;3.78;;;2.88;;
37593;SDS011;23441;50.856;6.076;2023-03-29T08:07:38;9.35;;;3.45;;
37593;SDS011;23441;50.856;6.076;2023-03-29T08:10:12;7.30;;;2.92;;
37593;SDS011;23441;50.856;6.076;2023-03-29T08:12:40;5.60;;;2.50;;
37593;SDS011;23441;50.856;6.076;2023-03-29T08:15:06;4.18;;;2.53;;
37593;SDS011;23441;50.856;6.076;2023-03-29T08:17:33;5.45;;;2.85;;
37593;SDS011;23441;50.856;6.076;2023-03-29T08:20:00;5.78;;;3.00;;
37593;SDS011;23441;50.856;6.076;2023-03-29T08:22:26;5.90;;;2.65;;
37593;SDS011;23441;50.856;6.076;2023-03-29T08:24:52;9.63;;;3.60;;
37593;SDS011;23441;50.856;6.076;2023-03-29T08:27:18;5.43;;;2.65;;
37593;SDS011;23441;50.856;6.076;2023-03-29T08:29:44;7.03;;;3.35;;
37593;SDS011;23441;50.856;6.076;2023-03-29T08:32:09;5.65;;;2.42;;
37593;SDS011;23441;50.856;6.076;2023-03-29T08:34:35;6.32;;;2.25;;
37593;SDS011;23441;50.856;6.076;2023-03-29T08:37:01;6.03;;;3.17;;
37593;SDS011;23441;50.856;6.076;2023-03-29T08:39:28;8.57;;;2.60;;
37593;SDS011;23441;50.856;6.076;2023-03-29T08:50:17;5.85;;;2.70;;
37593;SDS011;23441;50.856;6.076;2023-03-29T08:52:48;4.60;;;2.85;;
37593;SDS011;23441;50.856;6.076;2023-03-29T08:55:28;10.68;;;3.78;;
37593;SDS011;23441;50.856;6.076;2023-03-29T08:57:55;7.22;;;2.72;;
37593;SDS011;23441;50.856;6.076;2023-03-29T09:00:58;8.82;;;3.10;;
37593;SDS011;23441;50.856;6.076;2023-03-29T09:06:03;7.32;;;2.40;;
37593;SDS011;23441;50.856;6.076;2023-03-29T09:08:38;4.13;;;2.40;;
37593;SDS011;23441;50.856;6.076;2023-03-29T09:16:47;3.13;;;2.45;;
37593;SDS011;23441;50.856;6.076;2023-03-29T09:25:02;6.70;;;3.00;;
37593;SDS011;23441;50.856;6.076;2023-03-29T09:27:38;6.75;;;2.70;;
37593;SDS011;23441;50.856;6.076;2023-03-29T09:30:27;11.10;;;3.10;;
37593;SDS011;23441;50.856;6.076;2023-03-29T09:33:10;7.05;;;2.63;;
37593;SDS011;23441;50.856;6.076;2023-03-29T09:38:26;5.70;;;3.25;;
37593;SDS011;23441;50.856;6.076;2023-03-29T09:40:55;4.53;;;2.67;;
37593;SDS011;23441;50.856;6.076;2023-03-29T09:43:33;6.75;;;2.90;;
37593;SDS011;23441;50.856;6.076;2023-03-29T09:46:03;7.50;;;3.30;;
37593;SDS011;23441;50.856;6.076;2023-03-29T09:48:36;6.18;;;3.58;;
37593;SDS011;23441;50.856;6.076;2023-03-29T09:51:05;9.15;;;3.00;;
37593;SDS011;23441;50.856;6.076;2023-03-29T09:53:32;5.97;;;3.05;;
37593;SDS011;23441;50.856;6.076;2023-03-29T09:55:58;4.65;;;2.58;;
37593;SDS011;23441;50.856;6.076;2023-03-29T09:58:27;6.10;;;2.70;;
37593;SDS011;23441;50.856;6.076;2023-03-29T10:00:58;6.85;;;3.08;;
37593;SDS011;23441;50.856;6.076;2023-03-29T10:03:26;7.25;;;2.97;;
37593;SDS011;23441;50.856;6.076;2023-03-29T10:05:54;6.95;;;2.90;;
37593;SDS011;23441;50.856;6.076;2023-03-29T10:11:00;7.43;;;3.72;;
37593;SDS011;23441;50.856;6.076;2023-03-29T10:13:32;9.35;;;3.05;;
37593;SDS011;23441;50.856;6.076;2023-03-29T10:16:07;5.57;;;2.90;;
37593;SDS011;23441;50.856;6.076;2023-03-29T10:18:42;6.28;;;3.35;;
37593;SDS011;23441;50.856;6.076;2023-03-29T10:21:10;7.60;;;3.47;;
37593;SDS011;23441;50.856;6.076;2023-03-29T10:23:39;4.95;;;3.15;;
37593;SDS011;23441;50.856;6.076;2023-03-29T10:26:08;4.15;;;3.00;;
37593;SDS011;23441;50.856;6.076;2023-03-29T10:28:40;6.70;;;3.25;;
37593;SDS011;23441;50.856;6.076;2023-03-29T10:31:06;5.25;;;3.20;;
37593;SDS011;23441;50.856;6.076;2023-03-29T10:33:40;6.00;;;3.30;;
37593;SDS011;23441;50.856;6.076;2023-03-29T10:36:07;7.35;;;3.67;;
37593;SDS011;23441;50.856;6.076;2023-03-29T10:38:36;7.25;;;3.40;;
37593;SDS011;23441;50.856;6.076;2023-03-29T10:41:03;6.75;;;3.13;;
37593;SDS011;23441;50.856;6.076;2023-03-29T10:43:34;6.13;;;3.15;;
37593;SDS011;23441;50.856;6.076;2023-03-29T10:46:11;4.78;;;2.80;;
37593;SDS011;23441;50.856;6.076;2023-03-29T10:49:03;4.93;;;3.00;;
37593;SDS011;23441;50.856;6.076;2023-03-29T10:51:34;8.05;;;3.20;;
37593;SDS011;23441;50.856;6.076;2023-03-29T10:54:00;5.35;;;3.00;;
37593;SDS011;23441;50.856;6.076;2023-03-29T10:56:35;5.10;;;2.55;;
37593;SDS011;23441;50.856;6.076;2023-03-29T11:12:48;11.85;;;4.32;;
37593;SDS011;23441;50.856;6.076;2023-03-29T11:20:43;5.80;;;2.50;;
37593;SDS011;23441;50.856;6.076;2023-03-29T11:28:40;4.97;;;2.63;;
37593;SDS011;23441;50.856;6.076;2023-03-29T11:31:39;8.60;;;2.72;;
37593;SDS011;23441;50.856;6.076;2023-03-29T11:34:26;5.30;;;2.38;;
37593;SDS011;23441;50.856;6.076;2023-03-29T11:39:48;3.70;;;2.30;;
37593;SDS011;23441;50.856;6.076;2023-03-29T11:42:25;5.90;;;1.90;;
37593;SDS011;23441;50.856;6.076;2023-03-29T11:44:56;5.50;;;1.95;;
37593;SDS011;23441;50.856;6.076;2023-03-29T11:47:26;5.97;;;2.00;;
37593;SDS011;23441;50.856;6.076;2023-03-29T11:52:55;5.03;;;2.00;;
37593;SDS011;23441;50.856;6.076;2023-03-29T11:55:26;2.72;;;2.00;;
37593;SDS011;23441;50.856;6.076;2023-03-29T11:58:00;4.88;;;2.30;;
37593;SDS011;23441;50.856;6.076;2023-03-29T12:03:06;3.50;;;1.50;;
37593;SDS011;23441;50.856;6.076;2023-03-29T12:05:35;4.00;;;1.80;;
37593;SDS011;23441;50.856;6.076;2023-03-29T12:08:23;6.07;;;2.55;;
37593;SDS011;23441;50.856;6.076;2023-03-29T12:13:35;3.22;;;1.98;;
37593;SDS011;23441;50.856;6.076;2023-03-29T12:16:08;2.20;;;1.60;;
37593;SDS011;23441;50.856;6.076;2023-03-29T12:18:44;4.07;;;1.90;;
37593;SDS011;23441;50.856;6.076;2023-03-29T12:21:17;2.63;;;1.60;;
37593;SDS011;23441;50.856;6.076;2023-03-29T12:23:45;6.43;;;2.30;;
37593;SDS011;23441;50.856;6.076;2023-03-29T12:29:19;4.80;;;1.90;;
37593;SDS011;23441;50.856;6.076;2023-03-29T12:32:12;3.78;;;2.00;;
37593;SDS011;23441;50.856;6.076;2023-03-29T12:37:54;3.22;;;1.63;;
37593;SDS011;23441;50.856;6.076;2023-03-29T12:40:35;2.90;;;1.60;;
37593;SDS011;23441;50.856;6.076;2023-03-29T12:43:06;4.60;;;1.45;;
37593;SDS011;23441;50.856;6.076;2023-03-29T12:45:43;2.78;;;1.35;;
37593;SDS011;23441;50.856;6.076;2023-03-29T12:48:33;4.28;;;1.33;;
37593;SDS011;23441;50.856;6.076;2023-03-29T12:51:02;3.22;;;1.60;;
37593;SDS011;23441;50.856;6.076;2023-03-29T13:09:22;3.25;;;1.67;;
37593;SDS011;23441;50.856;6.076;2023-03-29T13:12:03;4.20;;;1.55;;
37593;SDS011;23441;50.856;6.076;2023-03-29T13:14:31;2.25;;;1.65;;
37593;SDS011;23441;50.856;6.076;2023-03-29T13:17:33;3.97;;;1.63;;
37593;SDS011;23441;50.856;6.076;2023-03-29T13:39:02;4.63;;;1.70;;
37593;SDS011;23441;50.856;6.076;2023-03-29T13:46:46;2.30;;;1.70;;
37593;SDS011;23441;50.856;6.076;2023-03-29T13:49:19;6.03;;;1.90;;
37593;SDS011;23441;50.856;6.076;2023-03-29T13:54:19;5.18;;;1.90;;
37593;SDS011;23441;50.856;6.076;2023-03-29T13:56:58;4.57;;;2.00;;
37593;SDS011;23441;50.856;6.076;2023-03-29T14:00:04;4.53;;;1.80;;
37593;SDS011;23441;50.856;6.076;2023-03-29T14:05:14;2.58;;;1.30;;
37593;SDS011;23441;50.856;6.076;2023-03-29T14:07:50;3.75;;;1.20;;
37593;SDS011;23441;50.856;6.076;2023-03-29T14:10:21;4.18;;;1.88;;
37593;SDS011;23441;50.856;6.076;2023-03-29T14:12:51;3.97;;;1.85;;
37593;SDS011;23441;50.856;6.076;2023-03-29T14:15:20;1.95;;;1.75;;
37593;SDS011;23441;50.856;6.076;2023-03-29T14:17:47;3.85;;;1.85;;
37593;SDS011;23441;50.856;6.076;2023-03-29T14:20:17;2.70;;;1.60;;
37593;SDS011;23441;50.856;6.076;2023-03-29T14:22:43;2.92;;;2.08;;
37593;SDS011;23441;50.856;6.076;2023-03-29T14:25:13;4.97;;;1.73;;
37593;SDS011;23441;50.856;6.076;2023-03-29T14:27:42;1.88;;;1.40;;
37593;SDS011;23441;50.856;6.076;2023-03-29T14:32:46;3.95;;;1.52;;
37593;SDS011;23441;50.856;6.076;2023-03-29T14:35:13;2.85;;;1.55;;
37593;SDS011;23441;50.856;6.076;2023-03-29T14:37:38;4.53;;;2.00;;
37593;SDS011;23441;50.856;6.076;2023-03-29T14:40:11;3.83;;;1.90;;
37593;SDS011;23441;50.856;6.076;2023-03-29T14:42:42;6.55;;;2.38;;
37593;SDS011;23441;50.856;6.076;2023-03-29T14:45:09;4.53;;;1.83;;
37593;SDS011;23441;50.856;6.076;2023-03-29T14:47:38;4.75;;;1.63;;
37593;SDS011;23441;50.856;6.076;2023-03-29T14:50:04;2.58;;;1.50;;
37593;SDS011;23441;50.856;6.076;2023-03-29T14:52:33;3.08;;;1.70;;
37593;SDS011;23441;50.856;6.076;2023-03-29T14:55:00;3.20;;;1.63;;
37593;SDS011;23441;50.856;6.076;2023-03-29T14:57:29;2.88;;;1.50;;
37593;SDS011;23441;50.856;6.076;2023-03-29T14:59:58;2.85;;;1.50;;
37593;SDS011;23441;50.856;6.076;2023-03-29T15:02:38;4.35;;;2.00;;
37593;SDS011;23441;50.856;6.076;2023-03-29T15:05:34;2.53;;;1.50;;
37593;SDS011;23441;50.856;6.076;2023-03-29T15:08:02;3.38;;;1.65;;
37593;SDS011;23441;50.856;6.076;2023-03-29T15:10:31;2.10;;;1.88;;
37593;SDS011;23441;50.856;6.076;2023-03-29T15:13:00;3.72;;;2.33;;
37593;SDS011;23441;50.856;6.076;2023-03-29T15:15:29;2.85;;;1.80;;
37593;SDS011;23441;50.856;6.076;2023-03-29T15:18:00;3.33;;;1.70;;
37593;SDS011;23441;50.856;6.076;2023-03-29T15:20:28;3.65;;;2.00;;
37593;SDS011;23441;50.856;6.076;2023-03-29T15:22:58;4.75;;;2.03;;
37593;SDS011;23441;50.856;6.076;2023-03-29T15:25:36;4.20;;;1.90;;
37593;SDS011;23441;50.856;6.076;2023-03-29T15:28:03;4.10;;;2.50;;
37593;SDS011;23441;50.856;6.076;2023-03-29T15:30:37;3.75;;;2.47;;
37593;SDS011;23441;50.856;6.076;2023-03-29T15:34:00;2.75;;;1.63;;
37593;SDS011;23441;50.856;6.076;2023-03-29T15:36:11;5.65;;;2.00;;
37593;SDS011;23441;50.856;6.076;2023-03-29T15:38:39;4.68;;;1.75;;
37593;SDS011;23441;50.856;6.076;2023-03-29T15:41:06;3.13;;;1.77;;
37593;SDS011;23441;50.856;6.076;2023-03-29T15:43:33;2.63;;;1.70;;
37593;SDS011;23441;50.856;6.076;2023-03-29T15:45:59;3.88;;;2.20;;
37593;SDS011;23441;50.856;6.076;2023-03-29T15:48:26;4.07;;;2.15;;
37593;SDS011;23441;50.856;6.076;2023-03-29T15:50:53;2.80;;;1.95;;
37593;SDS011;23441;50.856;6.076;2023-03-29T15:53:19;3.15;;;2.03;;
37593;SDS011;23441;50.856;6.076;2023-03-29T15:55:47;3.97;;;2.30;;
37593;SDS011;23441;50.856;6.076;2023-03-29T15:58:16;2.90;;;2.00;;
37593;SDS011;23441;50.856;6.076;2023-03-29T16:00:45;3.53;;;2.25;;
37593;SDS011;23441;50.856;6.076;2023-03-29T16:03:15;2.63;;;1.50;;
37593;SDS011;23441;50.856;6.076;2023-03-29T16:05:42;3.38;;;1.60;;
37593;SDS011;23441;50.856;6.076;2023-03-29T16:08:10;3.42;;;1.70;;
37593;SDS011;23441;50.856;6.076;2023-03-29T16:10:37;2.15;;;1.48;;
37593;SDS011;23441;50.856;6.076;2023-03-29T16:13:04;4.35;;;1.90;;
37593;SDS011;23441;50.856;6.076;2023-03-29T16:15:30;7.03;;;1.85;;
37593;SDS011;23441;50.856;6.076;2023-03-29T16:17:57;7.38;;;1.92;;
37593;SDS011;23441;50.856;6.076;2023-03-29T16:20:23;5.25;;;2.45;;
37593;SDS011;23441;50.856;6.076;2023-03-29T16:22:49;3.67;;;1.50;;
37593;SDS011;23441;50.856;6.076;2023-03-29T16:25:16;3.55;;;1.63;;
37593;SDS011;23441;50.856;6.076;2023-03-29T16:27:46;2.72;;;1.70;;
37593;SDS011;23441;50.856;6.076;2023-03-29T16:30:12;3.88;;;1.60;;
37593;SDS011;23441;50.856;6.076;2023-03-29T16:32:39;2.63;;;1.50;;
37593;SDS011;23441;50.856;6.076;2023-03-29T16:35:06;1.92;;;1.70;;
37593;SDS011;23441;50.856;6.076;2023-03-29T16:37:51;2.95;;;1.90;;
37593;SDS011;23441;50.856;6.076;2023-03-29T16:40:17;3.47;;;2.00;;
37593;SDS011;23441;50.856;6.076;2023-03-29T16:42:42;10.52;;;5.53;;
37593;SDS011;23441;50.856;6.076;2023-03-29T16:45:17;5.95;;;4.05;;
37593;SDS011;23441;50.856;6.076;2023-03-29T16:47:43;5.93;;;2.30;;
37593;SDS011;23441;50.856;6.076;2023-03-29T16:50:10;4.35;;;1.83;;
37593;SDS011;23441;50.856;6.076;2023-03-29T16:52:37;2.00;;;1.80;;
37593;SDS011;23441;50.856;6.076;2023-03-29T16:55:04;2.53;;;1.63;;
37593;SDS011;23441;50.856;6.076;2023-03-29T16:57:30;4.63;;;1.90;;
37593;SDS011;23441;50.856;6.076;2023-03-29T16:59:56;2.40;;;1.67;;
37593;SDS011;23441;50.856;6.076;2023-03-29T17:02:21;4.88;;;2.40;;
37593;SDS011;23441;50.856;6.076;2023-03-29T17:04:47;9.57;;;5.30;;
37593;SDS011;23441;50.856;6.076;2023-03-29T17:07:13;4.70;;;3.00;;
37593;SDS011;23441;50.856;6.076;2023-03-29T17:09:38;5.20;;;1.85;;
37593;SDS011;23441;50.856;6.076;2023-03-29T17:12:04;2.90;;;1.92;;
37593;SDS011;23441;50.856;6.076;2023-03-29T17:14:31;5.03;;;1.90;;
37593;SDS011;23441;50.856;6.076;2023-03-29T17:16:56;6.28;;;2.20;;